Latest Coastal Weather Observations for Minlaton Airport

IDS60701

Issued at 8:01 am CST Wednesday 2 September 2015 (issued every 10 minutes, with the page automatically refreshed every 10 minutes)

About coastal observations | Map of coastal stations | Coastal observations for SA | Marine services | Other Formats
Station Details ID: 022031 Name: MINLATON AERO Lat: -34.75 Lon: 137.53 Height: 32.0 m
Data from the previous 72 hours. | See also: Recent months at Minlaton Airport
Date/Time
CST
Temp

°C
Wind Pressure Rain
since 9am
mm
Weather Cloud Vis
km
Sea
Height
m
Swell
Dir
 
Speed
knots
Gust
knots
hPa Trend Height
m
Period
s
Dir
02/08:00am 11.5 NNW 19 26 1003.5 - 5.8 - - - - - - -
02/07:30am 11.2 N 18 25 1003.5 - 5.8 - - - - - - -
02/07:00am 10.7 NNW 19 26 1003.5 - 5.8 - - - - - - -
02/06:30am 10.8 NNW 18 25 1003.6 - 5.8 - - - - - - -
02/06:00am 10.8 N 16 20 1003.8 - 5.8 - - - - - - -
02/05:30am 11.0 NNW 15 21 1003.7 - 5.8 - - - - - - -
02/05:00am 10.8 NNW 16 22 1004.0 - 5.8 - - - - - - -
02/04:30am 10.7 N 12 16 1003.9 - 5.8 - - - - - - -
02/04:00am 10.6 N 13 16 1003.9 - 5.8 - - - - - - -
02/03:30am 10.7 N 13 17 1004.2 - 5.8 - - - - - - -
02/03:00am 10.9 N 11 15 1004.0 - 5.8 Recent precip. - - - - - -
02/02:30am 11.2 N 13 15 1005.0 - 5.8 - - - - - - -
02/02:00am 11.1 N 13 17 1005.2 - 5.6 - - - - - - -
02/01:30am 11.2 N 13 16 1005.3 - 5.6 - - - - - - -
02/01:00am 11.1 N 14 18 1006.1 - 5.6 - - - - - - -
02/12:30am 11.3 N 16 21 1006.0 - 5.4 - - - - - - -
02/12:00am 11.4 N 17 24 1006.4 - 5.4 Recent precip. - - - - - -
 
Date/Time
CST
Temp

°C
Wind Pressure Rain
since 9am
mm
Weather Cloud Vis
km
Sea
Height
m
Swell
Dir
 
Speed
knots
Gust
knots
hPa Trend Height
m
Period
s
Dir
01/11:30pm 11.2 N 12 16 1006.3 - 5.4 - - - - - - -
01/11:00pm 11.1 N 16 21 1006.5 - 5.2 - - - - - - -
01/10:30pm 11.6 N 17 23 1006.9 - 4.4 - - - - - - -
01/10:18pm 11.9 N 15 22 1006.7 - 4.0 - - - - - - -
01/10:00pm 11.6 NNE 10 11 1006.3 - 4.0 - - - - - - -
01/09:30pm 12.0 N 16 22 1006.6 - 3.8 - - - - - - -
01/09:00pm 12.1 NE 16 19 1006.3 - 3.6 - - - - - - -
01/08:30pm 11.7 NE 13 17 1006.5 - 3.6 - - - - - - -
01/08:00pm 11.4 NE 15 18 1005.8 - 3.6 - - - - - - -
01/07:30pm 11.4 ENE 13 16 1005.8 - 3.6 - - - - - - -
01/07:00pm 12.0 NE 11 13 1006.1 - 3.2 - - - - - - -
01/06:30pm 12.1 NE 14 17 1005.8 - 3.0 - - - - - - -
01/06:00pm 12.3 NE 20 25 1005.9 - 2.8 Rain - - - - - -
01/05:53pm 12.6 NE 17 24 1006.0 - 1.8 - - - - - - -
01/05:30pm 12.7 NNE 11 14 1006.9 - 1.0 - - - - - - -
01/05:00pm 13.4 NNE 14 18 1007.1 - 0.0 - - - - - - -
01/04:30pm 16.1 N 19 25 1006.5 - 0.0 - - - - - - -
01/04:00pm 16.5 NNE 15 20 1006.8 - 0.0 - - - - - - -
01/03:30pm 16.4 NNE 10 12 1007.0 - 0.0 - - - - - - -
01/03:00pm 15.8 N 9 10 1007.7 - 0.0 - - - - - - -
01/02:30pm 15.5 N 11 14 1008.0 - 0.0 - - - - - - -
01/02:00pm 15.7 N 15 20 1008.4 - 0.0 - - - - - - -
01/01:30pm 15.7 N 16 23 1008.7 - 0.0 - - - - - - -
01/01:00pm 16.7 N 18 25 1009.1 - 0.0 - - - - - - -
01/12:30pm 18.2 N 20 26 1009.6 - 0.0 - - - - - - -
01/12:00pm 20.3 N 22 30 1009.8 - 0.0 - - - - - - -
01/11:30am 19.6 N 19 25 1010.1 - 0.0 - - - - - - -
01/11:00am 18.3 N 20 25 1010.3 - 0.0 - - - - - - -
01/10:30am 16.6 N 19 23 1010.9 - 0.0 - - - - - - -
01/10:00am 15.4 N 17 24 1011.1 - 0.0 - - - - - - -
01/09:30am 15.9 N 16 21 1011.3 - 0.0 - - - - - - -
01/09:00am 15.2 N 15 21 1011.6 - 0.0 - - - - - - -
01/08:30am 14.0 NNE 13 18 1011.8 - 0.0 - - - - - - -
01/08:00am 12.7 NE 9 13 1011.8 - 0.0 - - - - - - -
01/07:30am 11.8 NNE 9 10 1011.9 - 0.0 - - - - - - -
01/07:00am 12.4 NNE 10 12 1011.9 - 0.0 - - - - - - -
01/06:30am 12.5 NNE 11 13 1011.8 - 0.0 - - - - - - -
01/06:00am 11.7 NNE 9 12 1011.8 - 0.0 - - - - - - -
01/05:30am 11.2 NNE 10 11 1011.7 - 0.0 - - - - - - -
01/05:00am 10.6 NNE 9 11 1011.8 - 0.0 - - - - - - -
01/04:30am 11.1 NNE 10 11 1011.8 - 0.0 - - - - - - -
01/04:00am 11.7 NE 11 12 1011.9 - 0.0 - - - - - - -
01/03:30am 11.1 NNE 9 11 1012.0 - 0.0 - - - - - - -
01/03:00am 11.2 NNE 9 10 1012.6 - 0.0 - - - - - - -
01/02:30am 11.5 NNE 9 11 1013.0 - 0.0 - - - - - - -
01/02:00am 10.9 NNE 10 11 1013.5 - 0.0 - - - - - - -
01/01:30am 10.5 NNE 10 11 1013.7 - 0.0 - - - - - - -
01/01:00am 10.9 NNE 11 13 1013.8 - 0.0 - - - - - - -
01/12:30am 10.7 NNE 12 14 1014.0 - 0.0 - - - - - - -
01/12:00am 11.0 NE 12 13 1014.1 - 0.0 - - - - - - -
 
Date/Time
CST
Temp

°C
Wind Pressure Rain
since 9am
mm
Weather Cloud Vis
km
Sea
Height
m
Swell
Dir
 
Speed
knots
Gust
knots
hPa Trend Height
m
Period
s
Dir
31/11:30pm 11.4 NE 13 15 1014.5 - 0.0 - - - - - - -
31/11:00pm 10.7 ENE 13 14 1014.7 - 0.0 - - - - - - -
31/10:30pm 11.4 ENE 12 14 1015.0 - 0.0 - - - - - - -
31/10:00pm 12.8 ENE 14 17 1015.4 - 0.0 - - - - - - -
31/09:30pm 12.5 ENE 13 15 1015.6 - 0.0 - - - - - - -
31/09:00pm 12.5 ENE 11 14 1015.8 - 0.0 - - - - - - -
31/08:30pm 12.0 ENE 12 14 1015.7 - 0.0 - - - - - - -
31/08:00pm 12.0 ENE 10 12 1015.9 - 0.0 - - - - - - -
31/07:30pm 12.0 E 10 11 1015.7 - 0.0 - - - - - - -
31/07:00pm 11.9 E 11 12 1015.6 - 0.0 - - - - - - -
31/06:30pm 12.5 ENE 10 11 1015.7 - 0.0 - - - - - - -
31/06:00pm 12.6 ENE 10 11 1015.7 - 0.0 - - - - - - -
31/05:30pm 13.6 ENE 9 11 1015.8 - 0.0 - - - - - - -
31/05:00pm 16.6 ENE 8 10 1015.8 - 0.0 - - - - - - -
31/04:30pm 18.9 NNE 6 8 1016.0 - 0.0 - - - - - - -
31/04:00pm 19.1 NW 7 10 1016.4 - 0.0 - - - - - - -
31/03:30pm 20.1 NNW 6 9 1016.5 - 0.0 - - - - - - -
31/03:00pm 20.2 N 6 9 1016.6 - 0.0 - - - - - - -
31/02:30pm 19.7 NNW 8 10 1017.0 - 0.0 - - - - - - -
31/02:00pm 19.4 NW 11 13 1017.4 - 0.0 - - - - - - -
31/01:30pm 19.6 NW 11 15 1017.7 - 0.0 - - - - - - -
31/01:00pm 19.2 NNW 11 14 1018.3 - 0.0 - - - - - - -
31/12:30pm 18.4 NNW 12 15 1018.7 - 0.0 - - - - - - -
31/12:00pm 18.1 NW 12 15 1019.3 - 0.0 - - - - - - -
31/11:30am 18.0 NNW 11 14 1019.6 - 0.0 - - - - - - -
31/11:00am 17.5 NNW 10 13 1019.8 - 0.0 - - - - - - -
31/10:30am 17.0 N 8 11 1020.0 - 0.0 - - - - - - -
31/10:00am 15.9 N 8 9 1020.3 - 0.0 - - - - - - -
31/09:30am 14.3 NNE 8 10 1020.3 - 0.0 - - - - - - -
31/09:00am 12.7 NNE 7 9 1020.5 - 0.4 - - - - - - -
31/08:30am 10.7 ENE 8 9 1020.6 - 0.4 - - - - - - -
31/08:00am 8.6 ENE 9 12 1020.5 - 0.4 - - - - - - -
31/07:30am 6.5 ENE 11 12 1020.2 - 0.4 - - - - - - -
31/07:00am 5.3 ENE 12 13 1019.8 - 0.4 - - - - - - -
31/06:30am 4.9 ENE 12 13 1019.8 - 0.4 - - - - - - -
31/06:00am 4.8 E 13 14 1019.7 - 0.4 - - - - - - -
31/05:30am 4.9 E 12 13 1019.9 - 0.4 - - - - - - -
31/05:00am 5.6 E 12 13 1020.0 - 0.4 - - - - - - -
31/04:30am 5.2 E 12 13 1020.0 - 0.4 - - - - - - -
31/04:00am 5.1 E 12 12 1020.1 - 0.4 - - - - - - -
31/03:30am 5.3 E 11 13 1020.2 - 0.4 - - - - - - -
31/03:00am 5.9 E 12 14 1020.2 - 0.2 - - - - - - -
31/02:30am 5.7 E 13 14 1020.7 - 0.2 - - - - - - -
31/02:00am 6.0 E 12 13 1021.2 - 0.2 - - - - - - -
31/01:30am 6.3 E 12 13 1021.4 - 0.2 - - - - - - -
31/01:00am 6.3 E 13 14 1021.5 - 0.2 - - - - - - -
31/12:30am 6.2 E 12 13 1021.7 - 0.2 - - - - - - -
31/12:00am 6.3 E 12 14 1021.9 - 0.2 - - - - - - -
 
Date/Time
CST
Temp

°C
Wind Pressure Rain
since 9am
mm
Weather Cloud Vis
km
Sea
Height
m
Swell
Dir
 
Speed
knots
Gust
knots
hPa Trend Height
m
Period
s
Dir
30/11:30pm 6.5 E 12 13 1022.1 - 0.2 - - - - - - -
30/11:00pm 6.5 E 11 12 1022.1 - 0.2 - - - - - - -
30/10:30pm 6.7 E 12 14 1022.1 - 0.2 - - - - - - -
30/10:00pm 6.4 E 12 13 1022.3 - 0.2 - - - - - - -
30/09:30pm 5.8 E 11 11 1022.6 - 0.2 - - - - - - -
30/09:00pm 5.7 E 11 11 1022.7 - 0.2 - - - - - - -
30/08:30pm 5.9 E 11 12 1022.7 - 0.2 - - - - - - -
30/08:00pm 6.3 E 11 12 1022.6 - 0.2 - - - - - - -
30/07:30pm 6.6 E 11 11 1022.5 - 0.2 - - - - - - -
30/07:00pm 7.0 E 10 11 1022.4 - 0.2 - - - - - - -
30/06:30pm 6.9 SE 8 8 1022.6 - 0.2 - - - - - - -
30/06:00pm 10.0 SW 3 4 1022.7 - 0.2 - - - - - - -
30/05:30pm 13.4 SW 3 4 1022.6 - 0.2 - - - - - - -
30/05:00pm 13.8 WSW 5 7 1022.7 - 0.2 - - - - - - -
30/04:30pm 14.2 WSW 6 8 1022.4 - 0.2 - - - - - - -
30/04:00pm 15.0 W 7 9 1022.6 - 0.2 - - - - - - -
30/03:30pm 15.1 W 7 10 1022.6 - 0.2 - - - - - - -
30/03:00pm 15.3 WNW 7 11 1022.7 - 0.2 - - - - - - -
30/02:30pm 15.4 WNW 9 12 1023.0 - 0.2 - - - - - - -
30/02:00pm 15.4 WNW 12 14 1023.3 - 0.2 - - - - - - -
30/01:30pm 15.3 WNW 11 14 1023.5 - 0.2 - - - - - - -
30/01:00pm 15.1 WNW 10 13 1023.9 - 0.2 - - - - - - -
30/12:30pm 16.1 N 7 10 1024.2 - 0.2 - - - - - - -
30/12:00pm 15.9 NNE 9 13 1024.7 - 0.2 - - - - - - -
30/11:30am 15.5 NNE 8 11 1025.0 - 0.2 - - - - - - -
30/11:00am 14.8 NE 8 13 1025.3 - 0.2 - - - - - - -
30/10:30am 13.9 NE 9 11 1025.8 - 0.2 - - - - - - -
30/10:00am 13.3 NE 9 13 1025.9 - 0.2 - - - - - - -
30/09:30am 11.6 ENE 12 14 1026.0 - 0.0 - - - - - - -
30/09:00am 10.5 ENE 13 15 1025.8 - 0.0 - - - - - - -
30/08:30am 9.1 ENE 12 15 1025.9 - 0.0 - - - - - - -

Other Formats:

Comma delimited format used in spreadsheet applications
http://www.bom.gov.au/fwo/IDS60701/IDS60701.95659.axf

JavaScript Object Notation format (JSON) in row-major order
http://www.bom.gov.au/fwo/IDS60701/IDS60701.95659.json